Time;durP1;ratioP1;P1;durP2;ratioP2;P2;SDS_P1;SDS_P2;PMS_P1;PMS_P2;Temp;Humidity;BMP_temperature;BMP_pressure;BME280_temperature;BME280_humidity;BME280_pressure;Samples;Min_cycle;Max_cycle;Signal;HPM_P1;HPM_P2
2023/11/18 00:03:01;;;;;;;;;;;;;;;24.99;43.37;95036.47;5040633;28;7176;-62
2023/11/18 00:05:29;;;;;;;;;;;;;;;24.98;43.32;95034.97;5024095;28;7293;-62
2023/11/18 00:08:04;;;;;;;;;;;;;;;24.99;43.64;95025.44;5034382;28;7308;-62
2023/11/18 00:10:39;;;;;;;;;;;;;;;24.99;44.32;95035.72;5024985;28;7311;-62
2023/11/18 00:13:28;;;;;;;;;;;;;;;24.99;43.61;95035.72;5039507;28;7222;-62
2023/11/18 00:15:57;;;;;;;;;;;;;;;24.99;43.38;95024.72;5030296;28;7059;-62
2023/11/18 00:18:31;;;;;;;;;;;;;;;24.99;43.72;95030.94;5060224;28;8492;-62
2023/11/18 00:21:36;;;;;;;;;;;;;;;24.99;44.01;95030.22;4995198;28;7415;-62
2023/11/18 00:24:21;;;;;;;;;;;;;;;24.98;43.34;95031.44;5004629;28;9119;-63
2023/11/18 00:27:06;;;;;;;;;;;;;;;24.97;43.95;95029.97;4992792;28;6993;-62
2023/11/18 00:30:13;;;;;;;;;;;;;;;24.99;43.28;95032.97;5010517;28;8725;-62
2023/11/18 00:32:49;;;;;;;;;;;;;;;24.96;43.94;95025.69;5009851;28;8953;-62
2023/11/18 00:35:31;;;;;;;;;;;;;;;24.98;44.15;95025.94;4984700;28;8814;-62
2023/11/18 00:38:17;;;;;;;;;;;;;;;24.97;43.78;95021.69;4977746;28;7232;-62
2023/11/18 00:40:53;;;;;;;;;;;;;;;24.98;43.51;95020.44;4989683;28;7238;-63
2023/11/18 00:43:38;;;;;;;;;;;;;;;24.99;43.79;95030.22;4997267;28;7291;-63
2023/11/18 00:46:19;;;;;;;;;;;;;;;24.97;44.09;95027.22;4995069;28;7082;-63
2023/11/18 00:49:13;;;;;;;;;;;;;;;24.99;43.45;95030.22;4996277;28;8848;-62
2023/11/18 00:52:40;;;;;;;;;;;;;;;24.99;43.37;95035.72;5007247;28;7358;-62
2023/11/18 00:55:36;;;;;;;;;;;;;;;24.98;43.13;95029.47;4995190;28;8849;-63
2023/11/18 00:58:11;;;;;;;;;;;;;;;24.98;44.26;95039.72;4963241;28;6990;-63
2023/11/18 01:00:37;;;;;;;;;;;;;;;24.97;44.00;95032.72;4972148;28;7511;-63
2023/11/18 01:03:05;;;;;;;;;;;;;;;24.96;43.75;95034.69;4956171;28;9413;-65
2023/11/18 01:05:50;;;;;;;;;;;;;;;24.97;43.61;95038.22;4965331;28;7218;-65
2023/11/18 01:08:17;;;;;;;;;;;;;;;24.97;43.66;95033.44;4954952;28;7218;-64
2023/11/18 01:10:43;;;;;;;;;;;;;;;24.98;43.79;95034.19;4947535;28;8842;-65
2023/11/18 01:13:33;;;;;;;;;;;;;;;24.98;43.21;95039.72;4937732;28;7075;-64
2023/11/18 01:16:16;;;;;;;;;;;;;;;24.98;43.22;95039.72;4947183;28;8983;-65
2023/11/18 01:18:59;;;;;;;;;;;;;;;24.99;43.04;95035.72;4945556;28;8651;-64
2023/11/18 01:21:36;;;;;;;;;;;;;;;24.99;43.15;95041.22;4972527;28;7416;-64
2023/11/18 01:24:28;;;;;;;;;;;;;;;24.98;43.71;95045.97;4952785;28;8573;-65
2023/11/18 01:27:09;;;;;;;;;;;;;;;24.96;43.21;95042.19;4953887;28;7228;-65
2023/11/18 01:29:54;;;;;;;;;;;;;;;24.97;43.45;95038.22;4956755;28;9078;-65
2023/11/18 01:32:40;;;;;;;;;;;;;;;24.97;43.91;95033.44;4984731;28;7443;-65
2023/11/18 01:35:10;;;;;;;;;;;;;;;24.97;43.60;95035.47;5002357;28;9228;-65
2023/11/18 01:37:43;;;;;;;;;;;;;;;24.97;43.07;95038.94;5018194;28;7004;-64
2023/11/18 01:40:30;;;;;;;;;;;;;;;24.96;43.66;95034.69;5029645;28;7579;-65
2023/11/18 01:43:26;;;;;;;;;;;;;;;24.98;43.37;95039.72;5009926;28;7011;-65
2023/11/18 01:45:53;;;;;;;;;;;;;;;24.95;43.96;95032.41;5007030;28;7247;-65
2023/11/18 01:48:34;;;;;;;;;;;;;;;24.96;43.95;95036.69;5013089;28;7270;-64
2023/11/18 01:51:23;;;;;;;;;;;;;;;24.99;43.37;95050.22;5021086;28;7272;-64
2023/11/18 01:54:03;;;;;;;;;;;;;;;24.99;44.10;95038.47;5019644;28;9081;-65
2023/11/18 01:56:32;;;;;;;;;;;;;;;25.00;43.97;95039.97;5001776;28;7587;-64
2023/11/18 01:59:04;;;;;;;;;;;;;;;24.99;42.95;95043.97;4997092;28;7331;-64
2023/11/18 02:01:43;;;;;;;;;;;;;;;24.99;44.02;95047.47;5035900;28;7676;-64
2023/11/18 02:04:16;;;;;;;;;;;;;;;24.99;43.97;95041.22;5034537;28;7087;-64
2023/11/18 02:06:56;;;;;;;;;;;;;;;24.96;43.18;95037.47;5019425;28;7184;-65
2023/11/18 02:09:51;;;;;;;;;;;;;;;24.98;43.38;95040.47;5015146;28;7516;-64
2023/11/18 02:16:01;;;;;;;;;;;;;;;24.98;43.36;95040.47;5017766;28;7019;-61
2023/11/18 02:19:19;;;;;;;;;;;;;;;24.97;43.34;95029.97;5089559;27;6626;-59
2023/11/18 02:21:47;;;;;;;;;;;;;;;24.97;43.92;95027.94;5066989;28;9055;-59
2023/11/18 02:24:36;;;;;;;;;;;;;;;24.97;43.03;95027.94;5055840;28;7541;-59
2023/11/18 02:27:07;;;;;;;;;;;;;;;24.97;43.19;95022.44;5070665;28;7145;-59
2023/11/18 02:29:37;;;;;;;;;;;;;;;24.97;43.05;95019.69;5072994;28;7241;-59
2023/11/18 02:32:28;;;;;;;;;;;;;;;24.97;43.47;95010.69;5059221;28;6995;-59
2023/11/18 02:35:10;;;;;;;;;;;;;;;24.98;43.27;95012.19;5066289;28;6981;-59
2023/11/18 02:37:47;;;;;;;;;;;;;;;24.95;43.75;95013.91;5057273;28;7231;-59
2023/11/18 02:40:25;;;;;;;;;;;;;;;24.98;43.82;95014.94;5056229;28;8766;-59
2023/11/18 02:42:54;;;;;;;;;;;;;;;24.99;43.46;95014.44;5049445;28;9081;-59
2023/11/18 02:45:21;;;;;;;;;;;;;;;24.98;43.29;95012.94;5054693;28;9316;-59
2023/11/18 02:47:50;;;;;;;;;;;;;;;24.97;42.96;95010.69;5076048;28;9061;-59
2023/11/18 02:50:19;;;;;;;;;;;;;;;24.97;43.13;94994.91;5068032;28;7249;-59
2023/11/18 02:52:45;;;;;;;;;;;;;;;24.97;43.95;95005.91;5058295;28;7247;-59
2023/11/18 02:55:11;;;;;;;;;;;;;;;24.99;43.30;95000.69;5068966;28;9085;-59
2023/11/18 02:57:39;;;;;;;;;;;;;;;24.97;43.91;95005.19;5060059;28;7515;-59
2023/11/18 03:00:12;;;;;;;;;;;;;;;24.96;43.66;95000.91;5048090;28;8516;-59
2023/11/18 03:02:39;;;;;;;;;;;;;;;24.96;43.94;95006.41;5067795;28;7396;-58
2023/11/18 03:05:11;;;;;;;;;;;;;;;24.98;43.34;95012.19;5054409;28;7233;-59
2023/11/18 03:07:49;;;;;;;;;;;;;;;24.98;43.41;95020.44;5050070;28;7319;-59
2023/11/18 03:10:22;;;;;;;;;;;;;;;24.98;43.14;95015.69;5078535;28;9338;-59
2023/11/18 03:12:49;;;;;;;;;;;;;;;24.98;43.43;95006.69;5064959;28;7265;-59
2023/11/18 03:15:19;;;;;;;;;;;;;;;24.98;42.84;95009.44;5062698;28;7186;-59
2023/11/18 03:17:49;;;;;;;;;;;;;;;24.99;43.29;95002.69;5077650;28;9156;-59
2023/11/18 03:20:19;;;;;;;;;;;;;;;24.98;42.79;95001.94;5065357;28;9038;-59
2023/11/18 03:23:00;;;;;;;;;;;;;;;24.98;43.60;94990.16;5053400;28;9083;-59
2023/11/18 03:25:26;;;;;;;;;;;;;;;24.98;43.92;94996.44;5075755;28;7013;-59
2023/11/18 03:28:15;;;;;;;;;;;;;;;24.99;43.83;95002.69;5050452;28;7361;-59
2023/11/18 03:31:19;;;;;;;;;;;;;;;25.00;43.00;95004.19;5050892;28;9008;-59
2023/11/18 03:33:56;;;;;;;;;;;;;;;24.97;42.96;94997.66;5040926;28;7161;-59
2023/11/18 03:36:22;;;;;;;;;;;;;;;24.96;43.05;95000.91;5071853;28;7215;-59
2023/11/18 03:38:49;;;;;;;;;;;;;;;24.99;43.24;95002.69;5053085;28;7274;-58
2023/11/18 03:41:24;;;;;;;;;;;;;;;24.99;42.88;94997.19;5049934;28;9049;-58
2023/11/18 03:44:01;;;;;;;;;;;;;;;24.97;43.51;94980.41;5045361;28;9071;-58
2023/11/18 03:46:36;;;;;;;;;;;;;;;24.96;43.25;94979.66;5036068;28;7270;-59
2023/11/18 03:49:20;;;;;;;;;;;;;;;24.99;43.41;94977.94;5051528;28;8079;-59
2023/11/18 03:51:51;;;;;;;;;;;;;;;24.99;43.49;94986.19;5044900;28;7512;-58
2023/11/18 03:54:24;;;;;;;;;;;;;;;24.99;42.79;94989.66;5049548;28;7040;-58
2023/11/18 03:57:35;;;;;;;;;;;;;;;24.97;42.91;94988.69;5036150;28;7229;-58
2023/11/18 04:00:12;;;;;;;;;;;;;;;24.97;43.44;94992.16;4995259;28;7197;-59
2023/11/18 04:02:45;;;;;;;;;;;;;;;24.98;43.22;94990.16;4994848;28;7993;-59
2023/11/18 04:05:38;;;;;;;;;;;;;;;25.00;42.88;95006.94;4991491;28;8758;-59
2023/11/18 04:08:38;;;;;;;;;;;;;;;25.00;42.85;94991.19;4986340;28;7316;-59
2023/11/18 04:11:15;;;;;;;;;;;;;;;24.99;43.02;94997.19;4964533;28;7648;-59
2023/11/18 04:14:15;;;;;;;;;;;;;;;25.01;42.77;94994.69;4958853;28;7159;-59
2023/11/18 04:16:45;;;;;;;;;;;;;;;25.00;43.35;94998.69;4919325;28;9017;-59
2023/11/18 04:19:22;;;;;;;;;;;;;;;25.00;43.10;94998.69;4919497;29;7001;-59
2023/11/18 04:22:46;;;;;;;;;;;;;;;24.98;43.00;94990.16;4919280;29;7003;-59
2023/11/18 04:25:37;;;;;;;;;;;;;;;24.98;43.45;94987.41;4943816;28;7178;-59
2023/11/18 04:28:12;;;;;;;;;;;;;;;24.96;43.39;94982.41;4935262;29;9048;-59
2023/11/18 04:30:39;;;;;;;;;;;;;;;24.97;42.99;94983.19;4935659;29;7270;-59
2023/11/18 04:33:15;;;;;;;;;;;;;;;24.95;43.03;94985.63;4935830;28;7288;-63
2023/11/18 04:36:26;;;;;;;;;;;;;;;24.97;43.67;94983.91;4943574;28;7250;-63
2023/11/18 04:39:12;;;;;;;;;;;;;;;24.97;43.22;94988.69;4903186;29;9085;-62
2023/11/18 04:42:01;;;;;;;;;;;;;;;24.98;42.72;94995.69;4895694;29;7369;-63
2023/11/18 04:44:38;;;;;;;;;;;;;;;24.99;43.21;94994.44;4908408;29;7323;-62
2023/11/18 04:47:05;;;;;;;;;;;;;;;24.98;43.45;94990.16;4913697;28;7186;-62
2023/11/18 04:49:43;;;;;;;;;;;;;;;24.99;42.91;94997.19;4967945;28;8981;-62
2023/11/18 04:52:11;;;;;;;;;;;;;;;24.96;43.03;95001.69;4974981;28;8743;-63
2023/11/18 04:54:48;;;;;;;;;;;;;;;24.98;42.50;95012.19;4996002;28;7435;-62
2023/11/18 04:57:25;;;;;;;;;;;;;;;24.98;42.63;95009.44;4966575;28;9253;-62
2023/11/18 05:00:09;;;;;;;;;;;;;;;24.97;42.98;95008.66;4970387;28;9233;-63
2023/11/18 05:02:40;;;;;;;;;;;;;;;24.99;42.91;95005.44;4982500;28;9227;-63
2023/11/18 05:05:08;;;;;;;;;;;;;;;24.98;43.13;95012.94;4962941;28;6947;-63
2023/11/18 05:07:35;;;;;;;;;;;;;;;24.99;43.38;94994.44;4982337;28;7302;-63
2023/11/18 05:10:03;;;;;;;;;;;;;;;24.99;42.99;94988.94;4981070;28;7250;-63
2023/11/18 05:12:32;;;;;;;;;;;;;;;24.99;42.66;94986.19;4993684;28;7663;-63
2023/11/18 05:15:01;;;;;;;;;;;;;;;24.99;42.68;94991.69;4986850;28;8232;-62
2023/11/18 05:17:41;;;;;;;;;;;;;;;24.96;42.95;94981.66;5047053;28;6995;-62
2023/11/18 05:20:19;;;;;;;;;;;;;;;25.00;42.66;94987.69;5054084;28;9197;-64
2023/11/18 05:23:04;;;;;;;;;;;;;;;25.01;42.38;94986.44;5056600;28;7292;-64
2023/11/18 05:25:43;;;;;;;;;;;;;;;24.98;42.79;94973.66;5063035;28;9313;-64
2023/11/18 05:29:01;;;;;;;;;;;;;;;25.00;42.30;94973.91;5068073;28;9633;-64
2023/11/18 05:31:37;;;;;;;;;;;;;;;25.00;42.77;94968.41;5038902;28;8216;-64
2023/11/18 05:34:03;;;;;;;;;;;;;;;25.00;43.18;94971.16;5022849;28;7523;-64
2023/11/18 05:36:54;;;;;;;;;;;;;;;24.97;42.75;94958.41;5031819;28;7152;-64
2023/11/18 05:39:24;;;;;;;;;;;;;;;24.99;42.70;94953.91;5028183;28;7259;-64
2023/11/18 05:41:52;;;;;;;;;;;;;;;24.98;42.26;94957.16;5024021;28;8875;-61
2023/11/18 05:44:19;;;;;;;;;;;;;;;24.96;43.15;94962.41;5012982;28;7013;-61
2023/11/18 05:47:25;;;;;;;;;;;;;;;24.99;42.37;94956.66;5031393;28;6985;-61
2023/11/18 05:50:16;;;;;;;;;;;;;;;25.01;43.34;94948.66;5031404;28;8783;-61
2023/11/18 05:53:16;;;;;;;;;;;;;;;25.03;42.58;94942.66;5014846;28;7227;-61
2023/11/18 05:55:53;;;;;;;;;;;;;;;24.99;42.59;94942.88;5015782;28;8271;-62
2023/11/18 05:58:38;;;;;;;;;;;;;;;25.00;42.85;94960.91;5011716;28;8735;-61
2023/11/18 06:01:07;;;;;;;;;;;;;;;25.00;42.28;94963.66;5011325;28;7115;-61
2023/11/18 06:03:47;;;;;;;;;;;;;;;25.00;42.92;94971.94;5015157;28;9238;-62
2023/11/18 06:06:16;;;;;;;;;;;;;;;25.01;42.11;94975.44;5010603;28;8066;-61
2023/11/18 06:09:17;;;;;;;;;;;;;;;25.01;42.46;94976.16;4998166;28;9062;-62
2023/11/18 06:12:12;;;;;;;;;;;;;;;24.99;42.67;94972.44;4995371;28;9443;-61
2023/11/18 06:15:14;;;;;;;;;;;;;;;25.00;42.44;94971.16;4986602;28;8885;-62
2023/11/18 06:17:47;;;;;;;;;;;;;;;24.97;42.80;94955.66;4983064;28;7423;-61
2023/11/18 06:20:16;;;;;;;;;;;;;;;24.98;42.69;94963.41;4985153;28;7243;-62
2023/11/18 06:22:53;;;;;;;;;;;;;;;24.98;42.70;94968.91;4983580;28;7187;-61
2023/11/18 06:25:45;;;;;;;;;;;;;;;24.98;42.65;94968.16;4992477;28;8902;-61
2023/11/18 06:28:43;;;;;;;;;;;;;;;24.98;43.27;94970.91;4993808;28;9231;-61
2023/11/18 06:31:11;;;;;;;;;;;;;;;24.99;42.89;94966.91;4983883;28;7138;-61
2023/11/18 06:33:45;;;;;;;;;;;;;;;24.98;42.85;94968.91;4975247;28;7214;-61
2023/11/18 06:36:13;;;;;;;;;;;;;;;24.99;43.37;94975.19;4989707;28;7240;-62
2023/11/18 06:38:55;;;;;;;;;;;;;;;24.97;42.44;94967.41;4970739;28;8751;-62
2023/11/18 06:42:11;;;;;;;;;;;;;;;25.02;43.31;94960.41;4991968;28;9112;-62
2023/11/18 06:44:42;;;;;;;;;;;;;;;25.04;42.41;94964.19;4895509;29;7070;-62
2023/11/18 06:47:20;;;;;;;;;;;;;;;25.04;42.37;94960.66;4895626;29;7485;-62
2023/11/18 06:50:24;;;;;;;;;;;;;;;25.03;42.28;94959.94;4884136;29;7231;-62
2023/11/18 06:53:10;;;;;;;;;;;;;;;25.02;43.18;94966.69;4906737;29;8620;-60
2023/11/18 06:55:36;;;;;;;;;;;;;;;25.01;42.98;94972.69;4911847;29;8614;-61
2023/11/18 06:58:31;;;;;;;;;;;;;;;25.00;43.35;94971.16;4904435;29;8781;-60
2023/11/18 07:01:31;;;;;;;;;;;;;;;25.00;42.80;94977.44;4912446;29;7263;-60
2023/11/18 07:04:22;;;;;;;;;;;;;;;25.01;42.43;94964.44;4899130;29;7063;-60
2023/11/18 07:07:04;;;;;;;;;;;;;;;24.98;43.36;94957.91;4909321;28;7277;-61
2023/11/18 07:09:41;;;;;;;;;;;;;;;24.98;42.46;94963.41;4962472;28;7205;-61
2023/11/18 07:12:38;;;;;;;;;;;;;;;25.03;43.22;94964.69;4942782;28;7245;-60
2023/11/18 07:15:21;;;;;;;;;;;;;;;25.04;43.05;94957.91;4963093;28;7608;-61
2023/11/18 07:17:52;;;;;;;;;;;;;;;25.04;43.09;94961.44;4959057;28;7548;-60
2023/11/18 07:20:21;;;;;;;;;;;;;;;25.02;43.03;94969.44;4986872;28;7198;-60
2023/11/18 07:22:58;;;;;;;;;;;;;;;25.06;43.25;94969.94;5078466;28;9172;-60
2023/11/18 07:25:51;;;;;;;;;;;;;;;25.09;42.50;94979.97;5071063;28;7114;-60
2023/11/18 07:28:18;;;;;;;;;;;;;;;25.12;42.48;94983.75;5059157;28;7298;-61
2023/11/18 07:31:18;;;;;;;;;;;;;;;25.15;42.38;94988.25;5048788;28;9011;-60
2023/11/18 07:33:49;;;;;;;;;;;;;;;25.17;42.73;94988.50;4996091;28;7610;-61
2023/11/18 07:36:16;;;;;;;;;;;;;;;25.20;43.06;94999.31;5015236;28;7340;-61
2023/11/18 07:39:19;;;;;;;;;;;;;;;25.19;43.77;94995.03;5016075;28;6987;-61
2023/11/18 07:41:59;;;;;;;;;;;;;;;25.22;42.86;94999.56;4949398;28;7256;-61
2023/11/18 07:44:36;;;;;;;;;;;;;;;25.23;43.63;95012.06;4962237;28;9072;-61
2023/11/18 07:47:39;;;;;;;;;;;;;;;25.24;42.94;95012.81;4952017;28;7012;-61
2023/11/18 07:50:14;;;;;;;;;;;;;;;25.25;42.88;95014.34;4957939;28;8687;-61
2023/11/18 07:52:51;;;;;;;;;;;;;;;25.27;43.51;95009.09;4940333;28;9124;-61
2023/11/18 07:55:19;;;;;;;;;;;;;;;25.24;43.52;95001.81;4956927;28;7503;-61
2023/11/18 07:57:47;;;;;;;;;;;;;;;25.24;42.92;95004.56;4939738;28;7198;-60
2023/11/18 08:00:23;;;;;;;;;;;;;;;25.23;42.97;94994.78;4954369;28;7957;-61
2023/11/18 08:02:49;;;;;;;;;;;;;;;25.24;43.15;95001.81;4947701;28;8807;-61
2023/11/18 08:05:16;;;;;;;;;;;;;;;25.21;43.03;94994.53;4942023;28;7282;-61
2023/11/18 08:07:53;;;;;;;;;;;;;;;25.22;42.80;94985.03;4955265;28;7242;-61
2023/11/18 08:10:32;;;;;;;;;;;;;;;25.26;43.48;94988.31;4962857;28;7197;-61
2023/11/18 08:13:53;;;;;;;;;;;;;;;25.28;42.80;94991.31;4998427;28;9003;-61
2023/11/18 08:16:35;;;;;;;;;;;;;;;25.29;43.04;94992.84;4943639;28;7338;-61
2023/11/18 08:19:02;;;;;;;;;;;;;;;25.29;43.00;95001.09;4980325;28;7250;-61
2023/11/18 08:21:47;;;;;;;;;;;;;;;25.29;42.56;94996.31;5001490;28;7437;-61
2023/11/18 08:24:15;;;;;;;;;;;;;;;25.28;43.06;94997.59;5010520;28;8405;-61
2023/11/18 08:26:44;;;;;;;;;;;;;;;25.27;43.08;95000.84;5014691;28;6981;-62
2023/11/18 08:30:05;;;;;;;;;;;;;;;25.34;42.62;94997.59;4985581;28;6976;-61
2023/11/18 08:33:09;;;;;;;;;;;;;;;25.38;43.46;95006.41;4992549;28;7239;-61
2023/11/18 08:35:48;;;;;;;;;;;;;;;25.37;42.60;95008.38;4937217;28;7159;-61
2023/11/18 08:39:10;;;;;;;;;;;;;;;25.40;42.24;95014.91;4925715;29;7339;-61
2023/11/18 08:41:38;;;;;;;;;;;;;;;25.40;42.80;95014.91;4919795;29;6997;-61
2023/11/18 08:47:49;;;;;;;;;;;;;;;25.42;42.75;94993.91;4915441;29;7190;-61
2023/11/18 08:50:26;;;;;;;;;;;;;;;25.43;43.44;94992.66;4914629;29;8823;-61
2023/11/18 08:53:11;;;;;;;;;;;;;;;25.45;43.35;94977.66;4927571;29;9097;-61
2023/11/18 08:56:34;;;;;;;;;;;;;;;25.43;42.39;94972.63;4915697;29;7330;-61
2023/11/18 08:59:02;;;;;;;;;;;;;;;25.43;42.74;94976.13;4917851;29;7461;-62
2023/11/18 09:01:55;;;;;;;;;;;;;;;25.45;42.64;94978.38;4902790;29;7265;-62
2023/11/18 09:04:25;;;;;;;;;;;;;;;25.42;43.08;94973.88;4915439;29;7255;-62
2023/11/18 09:07:09;;;;;;;;;;;;;;;25.44;43.20;94968.63;4920917;29;7283;-62
2023/11/18 09:09:49;;;;;;;;;;;;;;;25.43;42.71;94965.13;4950175;28;7163;-62
2023/11/18 09:12:47;;;;;;;;;;;;;;;25.46;43.18;94968.13;4994689;28;7194;-63
2023/11/18 09:15:22;;;;;;;;;;;;;;;25.49;43.60;94969.91;4978093;28;8803;-63
2023/11/18 09:17:53;;;;;;;;;;;;;;;25.49;42.66;94961.66;5040864;28;6993;-62
2023/11/18 09:20:48;;;;;;;;;;;;;;;25.47;43.36;94959.38;5070558;28;7049;-62
2023/11/18 09:23:51;;;;;;;;;;;;;;;25.45;43.09;94961.88;4994404;28;9123;-62
2023/11/18 09:26:32;;;;;;;;;;;;;;;25.45;43.54;94955.63;4940762;28;9198;-62
2023/11/18 09:29:41;;;;;;;;;;;;;;;25.49;43.08;94956.13;4952790;28;7259;-62
2023/11/18 09:32:25;;;;;;;;;;;;;;;25.48;42.45;94955.38;4953361;28;9141;-61
2023/11/18 09:35:08;;;;;;;;;;;;;;;25.49;42.96;94945.84;4950053;28;7011;-62
2023/11/18 09:37:44;;;;;;;;;;;;;;;25.48;42.40;94938.09;4953135;28;7147;-61
2023/11/18 09:40:18;;;;;;;;;;;;;;;25.49;42.28;94926.56;4948321;28;6972;-61
2023/11/18 09:43:09;;;;;;;;;;;;;;;25.48;42.24;94921.56;4948509;28;9074;-61
2023/11/18 09:45:45;;;;;;;;;;;;;;;25.47;42.04;94937.34;4936527;28;7663;-61
2023/11/18 09:48:17;;;;;;;;;;;;;;;25.46;42.75;94941.34;4956323;28;8241;-62
2023/11/18 09:50:50;;;;;;;;;;;;;;;25.45;42.08;94948.09;4951810;28;7274;-62
2023/11/18 09:53:36;;;;;;;;;;;;;;;25.43;42.75;94945.84;4936776;28;9404;-62
2023/11/18 09:56:46;;;;;;;;;;;;;;;25.40;43.45;94951.56;4957558;28;7006;-61
2023/11/18 10:02:50;;;;;;;;;;;;;;;25.35;43.45;94958.56;5048995;28;8717;-61
2023/11/18 10:05:20;;;;;;;;;;;;;;;25.36;42.87;94959.28;5055986;28;7017;-62
2023/11/18 10:07:49;;;;;;;;;;;;;;;25.37;43.14;94955.31;5054944;28;7030;-61
2023/11/18 10:10:21;;;;;;;;;;;;;;;25.38;42.83;94956.81;5062533;28;7238;-62
2023/11/18 10:12:52;;;;;;;;;;;;;;;25.37;44.53;94956.06;5063482;28;9192;-62
2023/11/18 10:15:24;;;;;;;;;;;;;;;25.36;44.16;94954.56;5051010;28;9153;-62
2023/11/18 10:18:06;;;;;;;;;;;;;;;25.33;44.02;94947.28;5050987;28;7241;-62
2023/11/18 10:21:08;;;;;;;;;;;;;;;25.35;44.39;94946.78;5053617;28;8761;-61
2023/11/18 10:24:05;;;;;;;;;;;;;;;25.32;44.73;94943.03;4980288;28;7013;-62
2023/11/18 10:26:47;;;;;;;;;;;;;;;25.28;44.66;94947.25;4904448;29;9124;-62
2023/11/18 10:29:40;;;;;;;;;;;;;;;25.30;45.45;94945.53;4908365;29;9759;-62
2023/11/18 10:32:09;;;;;;;;;;;;;;;25.30;44.68;94950.28;4901003;29;9177;-63
2023/11/18 10:34:38;;;;;;;;;;;;;;;25.28;44.86;94945.28;4897804;29;7319;-63
2023/11/18 10:37:10;;;;;;;;;;;;;;;25.28;45.34;94959.03;4913390;29;7373;-62
2023/11/18 10:39:55;;;;;;;;;;;;;;;25.30;45.42;94955.78;4901954;29;7004;-63
2023/11/18 10:42:30;;;;;;;;;;;;;;;25.35;44.56;94952.31;4924143;29;9086;-63
2023/11/18 10:45:27;;;;;;;;;;;;;;;25.36;44.21;94949.03;4918557;29;7009;-63
2023/11/18 10:48:02;;;;;;;;;;;;;;;25.36;44.46;94953.78;4837435;29;7958;-61
2023/11/18 10:50:49;;;;;;;;;;;;;;;25.40;44.39;94954.31;4840446;29;7176;-61
2023/11/18 10:53:18;;;;;;;;;;;;;;;25.39;43.65;94947.31;4841748;29;8398;-60
2023/11/18 10:55:45;;;;;;;;;;;;;;;25.39;43.40;94961.84;4840134;29;9125;-61
2023/11/18 10:58:14;;;;;;;;;;;;;;;25.39;43.61;94958.31;4866208;28;9188;-61
2023/11/18 11:00:49;;;;;;;;;;;;;;;25.40;44.36;94965.34;4942943;28;8069;-61
2023/11/18 11:03:18;;;;;;;;;;;;;;;25.36;44.56;94962.81;4968729;28;7014;-61
2023/11/18 11:05:49;;;;;;;;;;;;;;;25.37;44.65;94958.81;4988935;28;6974;-61
2023/11/18 11:08:35;;;;;;;;;;;;;;;25.39;44.36;94955.56;4986605;28;7608;-60
2023/11/18 11:11:25;;;;;;;;;;;;;;;25.39;44.39;94969.34;4996023;28;9067;-60
2023/11/18 11:17:54;;;;;;;;;;;;;;;25.47;44.39;94962.13;4996621;28;6804;-61
2023/11/18 11:20:42;;;;;;;;;;;;;;;25.45;44.33;94958.38;4999006;28;8717;-61
2023/11/18 11:23:54;;;;;;;;;;;;;;;25.45;44.40;94972.16;5000887;28;9791;-61
2023/11/18 11:27:07;;;;;;;;;;;;;;;25.46;44.39;94973.63;4993383;28;9044;-61
2023/11/18 11:30:18;;;;;;;;;;;;;;;25.46;43.86;94973.63;5002566;28;7359;-61
2023/11/18 11:32:59;;;;;;;;;;;;;;;25.45;44.21;94974.91;4988747;28;9583;-62
2023/11/18 11:35:44;;;;;;;;;;;;;;;25.46;44.41;94968.13;4977489;28;7278;-62
2023/11/18 11:38:26;;;;;;;;;;;;;;;25.45;44.47;94966.63;4978091;28;6997;-62
2023/11/18 11:41:19;;;;;;;;;;;;;;;25.44;44.06;94965.88;4992160;28;7498;-63
2023/11/18 11:43:51;;;;;;;;;;;;;;;25.45;44.03;94963.88;4996744;28;7248;-62
2023/11/18 11:46:23;;;;;;;;;;;;;;;25.45;44.14;94956.34;4993707;28;8744;-62
2023/11/18 11:48:59;;;;;;;;;;;;;;;25.47;44.61;94970.38;5000759;28;8748;-63
2023/11/18 11:51:50;;;;;;;;;;;;;;;25.49;44.59;94967.88;4995547;28;7278;-63
2023/11/18 11:54:29;;;;;;;;;;;;;;;25.45;45.25;94959.09;4991456;28;9406;-62
2023/11/18 11:57:00;;;;;;;;;;;;;;;25.44;44.88;94957.63;4979414;28;8839;-62
2023/11/18 11:59:55;;;;;;;;;;;;;;;25.46;44.07;94955.13;5002846;28;7192;-63
2023/11/18 12:02:26;;;;;;;;;;;;;;;25.44;44.81;94952.13;5068403;28;7211;-63
2023/11/18 12:04:58;;;;;;;;;;;;;;;25.44;45.17;94949.34;5079155;28;9078;-62
2023/11/18 12:07:58;;;;;;;;;;;;;;;25.41;44.40;94940.06;5061517;28;7179;-63
2023/11/18 12:10:32;;;;;;;;;;;;;;;25.40;44.60;94932.31;5016185;28;7346;-63
2023/11/18 12:13:16;;;;;;;;;;;;;;;25.40;45.08;94944.03;5032873;28;7244;-62
2023/11/18 12:16:33;;;;;;;;;;;;;;;25.47;44.13;94951.09;5040600;28;7791;-62
2023/11/18 12:19:44;;;;;;;;;;;;;;;25.47;44.57;94947.63;4961886;28;7131;-64
2023/11/18 12:22:34;;;;;;;;;;;;;;;25.47;44.47;94953.13;4938870;28;9151;-62
2023/11/18 12:25:05;;;;;;;;;;;;;;;25.47;44.12;94944.88;4939735;28;7227;-62
2023/11/18 12:27:51;;;;;;;;;;;;;;;25.47;44.44;94959.38;4956522;28;7482;-62
2023/11/18 12:30:56;;;;;;;;;;;;;;;25.46;44.49;94960.63;4961649;28;7586;-63
2023/11/18 12:33:46;;;;;;;;;;;;;;;25.46;44.48;94957.13;4943681;28;7375;-61
2023/11/18 12:36:41;;;;;;;;;;;;;;;25.49;44.22;94951.34;4954848;28;7242;-61
2023/11/18 12:39:37;;;;;;;;;;;;;;;25.51;43.33;94953.63;4948541;28;9782;-61
2023/11/18 12:42:14;;;;;;;;;;;;;;;25.50;43.34;94950.13;4949700;28;9037;-55
2023/11/18 12:45:02;;;;;;;;;;;;;;;25.51;43.46;94950.88;4967084;28;9185;-55
2023/11/18 12:47:31;;;;;;;;;;;;;;;25.49;43.32;94942.38;4967367;28;9100;-56
2023/11/18 12:50:00;;;;;;;;;;;;;;;25.49;43.31;94948.59;4961482;28;7401;-55
2023/11/18 12:52:27;;;;;;;;;;;;;;;25.50;42.92;94949.38;4975606;28;8894;-55
2023/11/18 12:54:58;;;;;;;;;;;;;;;25.50;43.29;94936.34;5020015;28;7189;-55
2023/11/18 12:57:31;;;;;;;;;;;;;;;25.49;43.30;94937.59;5059000;28;7204;-55
2023/11/18 13:00:11;;;;;;;;;;;;;;;25.50;43.29;94928.09;5079737;28;7241;-55
2023/11/18 13:02:54;;;;;;;;;;;;;;;25.50;43.84;94914.31;5067180;28;8816;-55
2023/11/18 13:05:36;;;;;;;;;;;;;;;25.47;43.51;94915.28;5062353;28;7679;-55
2023/11/18 13:08:07;;;;;;;;;;;;;;;25.48;43.53;94910.56;5071666;28;7304;-57
2023/11/18 13:10:33;;;;;;;;;;;;;;;25.47;43.60;94915.28;5053904;28;7605;-56
2023/11/18 13:13:12;;;;;;;;;;;;;;;25.49;43.55;94912.06;5033455;28;7128;-57
2023/11/18 13:15:50;;;;;;;;;;;;;;;25.49;43.71;94912.78;5063119;28;7147;-57
2023/11/18 13:18:29;;;;;;;;;;;;;;;25.49;42.86;94917.56;5053244;28;7089;-57
2023/11/18 13:20:58;;;;;;;;;;;;;;;25.47;43.80;94909.78;5045427;28;7332;-57
2023/11/18 13:23:38;;;;;;;;;;;;;;;25.44;43.09;94897.03;5049817;28;7476;-57
2023/11/18 13:26:43;;;;;;;;;;;;;;;25.47;43.54;94901.53;5069711;28;7256;-57
2023/11/18 13:29:36;;;;;;;;;;;;;;;25.49;43.00;94901.06;5073891;28;9422;-57
2023/11/18 13:32:36;;;;;;;;;;;;;;;25.48;42.72;94894.78;5058668;28;7482;-57
2023/11/18 13:35:13;;;;;;;;;;;;;;;25.47;43.09;94893.25;4983998;28;8847;-57
2023/11/18 13:37:53;;;;;;;;;;;;;;;25.47;43.28;94893.25;4985393;28;9013;-57
2023/11/18 13:40:42;;;;;;;;;;;;;;;25.47;42.87;94893.25;4992024;28;7261;-58
2023/11/18 13:44:03;;;;;;;;;;;;;;;25.50;43.32;94884.03;4980961;28;9369;-57
2023/11/18 13:46:49;;;;;;;;;;;;;;;25.43;42.95;94879.00;4893341;29;7223;-57
2023/11/18 13:49:27;;;;;;;;;;;;;;;25.38;42.93;94885.97;4889919;29;7032;-57
2023/11/18 13:52:03;;;;;;;;;;;;;;;25.39;43.24;94881.22;4873330;29;8835;-62
2023/11/18 13:54:55;;;;;;;;;;;;;;;25.36;42.59;94893.97;4882821;29;8839;-61
2023/11/18 13:57:31;;;;;;;;;;;;;;;25.34;43.19;94887.44;4865578;29;8928;-61
2023/11/18 14:00:27;;;;;;;;;;;;;;;25.37;43.06;94883.72;4878362;29;7333;-60
2023/11/18 14:03:16;;;;;;;;;;;;;;;25.39;42.90;94870.19;4836313;29;9857;-60
2023/11/18 14:05:45;;;;;;;;;;;;;;;25.37;42.83;94854.19;4841106;29;7265;-61
2023/11/18 14:08:19;;;;;;;;;;;;;;;25.38;42.51;94846.69;4840772;29;7246;-61
2023/11/18 14:11:00;;;;;;;;;;;;;;;25.35;43.17;94842.91;4870239;29;7163;-61
2023/11/18 14:13:58;;;;;;;;;;;;;;;25.31;42.70;94845.16;4887475;29;7269;-61
2023/11/18 14:16:30;;;;;;;;;;;;;;;25.35;43.28;94845.66;4881827;29;7495;-60
2023/11/18 14:18:58;;;;;;;;;;;;;;;25.38;42.59;94841.16;4877702;29;9396;-60
2023/11/18 14:21:40;;;;;;;;;;;;;;;25.37;42.83;94826.66;4923073;29;9060;-60
2023/11/18 14:24:28;;;;;;;;;;;;;;;25.40;42.34;94830.41;4959380;28;7187;-60
2023/11/18 14:27:30;;;;;;;;;;;;;;;25.39;42.37;94817.88;4941292;28;9300;-60
2023/11/18 14:30:12;;;;;;;;;;;;;;;25.38;42.97;94803.34;4933693;29;7266;-60